メインページ
METAR-TAF:

METAR-TAF

空港 :

ヴォルゴグラード, ロシア

ヴォルゴグラード国際空港

緯度: 48-47N, 経度: 044-22E, 海抜: 145m

現時点の気象観測

当レポートは36分前の04:30(UTC)に作成
東/北東の風 6kt
気温 7°C
湿度 87%
気圧 1018 hPa
視程10km以上
1,500メートル以下は雲なし、積乱雲なし

METAR: URWW 210430Z 06003MPS CAVOK 07/05 Q1018 R24/290060 NOSIG

時間: 08:06 (05:06 UTC)

予報

当レポートは3時間7分前の01:59(UTC)に作成
予報は21日の 03時(UTC)から 21日の 12時(UTC)まで有効
北東の風 6kt、最大16ktの突風を伴う
視程: 3100m
高度1100ftの千切れ雲あり
高度2000ftの雲は散在している, 積乱雲.
弱いにわか雨, 靄
21日の 03時(UTC)から 21日の 08時(UTC)まで一時的に
変向風 2kt
視程: 0300m
高度200ftの千切れ雲あり
高度2000ftの雲は散在している, 積乱雲.
21日の 08時(UTC)から 21日の 12時(UTC)まで一時的に
の風 10kt、最大19ktの突風を伴う

TAF: URWW 210159Z 2103/2112 05003G08MPS 3100 -SHRA BR BKN011 SCT020CB TEMPO 2103/2108 VRB01MPS 0300 FG BKN002 SCT020CB TEMPO 2108/2112 09005G10MPS

4,000以上の空港の気象観測と天気予報(METAR報とTAF報)

利用可能な観測所は地図上に黄色い丸と赤い丸で示す。

丸の上にカーソルを重ねると観測所名を参照できる。

次にクリックすると気象観測と天気予報を参照できる。

マップの切り替え:黒色「×」印の緑ボタンをクリックして拡大、「-」印の緑ボタンをクリックして縮小、緑色の三角印をクリックして隣りの地図に切り替え


METAR-TAF: